Time;durP1;ratioP1;P1;durP2;ratioP2;P2;SDS_P1;SDS_P2;PMS_P1;PMS_P2;Temp;Humidity;BMP_temperature;BMP_pressure;BME280_temperature;BME280_humidity;BME280_pressure;Samples;Min_cycle;Max_cycle;Signal;HPM_P1;HPM_P2
2021/04/13 00:01:30;;;;;;;12.73;7.53;;;;;;;8.73;49.94;97093.81;1607725;89;21289;-79
2021/04/13 00:04:27;;;;;;;17.77;8.48;;;;;;;8.72;49.92;97090.82;1622461;88;21594;-79
2021/04/13 00:06:57;;;;;;;18.80;10.32;;;;;;;8.71;50.07;97090.45;1698950;83;21124;-79
2021/04/13 00:09:32;;;;;;;22.50;12.60;;;;;;;8.67;50.50;97089.02;1722251;83;21171;-79
2021/04/13 00:12:15;;;;;;;29.63;13.10;;;;;;;8.62;50.43;97092.44;1721210;83;21600;-79
2021/04/13 00:14:50;;;;;;;22.27;13.43;;;;;;;8.57;50.67;97091.45;1720186;83;21116;-77
2021/04/13 00:17:30;;;;;;;26.33;12.80;;;;;;;8.58;51.69;97088.38;1852444;76;22576;-79
2021/04/13 00:20:05;;;;;;;23.42;12.15;;;;;;;8.50;50.57;97080.17;1829152;78;21291;-79
2021/04/13 00:22:34;;;;;;;22.22;11.90;;;;;;;8.49;50.78;97084.61;1820191;78;21258;-79
2021/04/13 00:25:04;;;;;;;24.87;11.75;;;;;;;8.49;50.92;97082.47;1796703;80;21173;-80
2021/04/13 00:27:31;;;;;;;26.77;13.65;;;;;;;8.48;50.99;97088.17;1821693;77;21648;-76
2021/04/13 00:30:16;;;;;;;21.20;11.83;;;;;;;8.47;51.21;97080.38;1772543;80;21598;-79
2021/04/13 00:32:57;;;;;;;21.40;11.53;;;;;;;8.45;51.18;97080.47;1751852;81;21637;-78
2021/04/13 00:38:21;;;;;;;21.20;12.03;;;;;;;8.43;51.68;97089.79;1732715;81;21141;-76
2021/04/13 00:40:49;;;;;;;23.55;12.70;;;;;;;8.43;51.42;97096.36;1764869;81;21288;-77
2021/04/13 00:43:20;;;;;;;19.32;10.98;;;;;;;8.40;51.99;97097.05;1765093;81;21173;-79
2021/04/13 00:45:49;;;;;;;27.00;11.78;;;;;;;8.40;51.49;97101.81;1754693;81;21338;-77
2021/04/13 00:48:22;;;;;;;18.80;11.08;;;;;;;8.39;51.71;97089.66;1771306;81;21160;-79
2021/04/13 00:50:54;;;;;;;25.68;12.30;;;;;;;8.35;52.02;97092.13;1758683;81;21212;-78
2021/04/13 00:53:24;;;;;;;22.00;12.05;;;;;;;8.34;51.83;97087.82;1746645;81;21136;-79
2021/04/13 00:55:56;;;;;;;24.27;12.05;;;;;;;8.36;51.73;97092.95;1743057;81;21137;-79
2021/04/13 00:58:56;;;;;;;22.15;11.85;;;;;;;8.37;51.67;97088.06;1742553;81;21294;-78
2021/04/13 01:01:38;;;;;;;17.40;10.10;;;;;;;8.37;51.81;97083.67;1710868;84;21209;-78
2021/04/13 01:04:19;;;;;;;20.70;10.95;;;;;;;8.37;51.78;97081.05;1763818;81;21614;-79
2021/04/13 01:07:10;;;;;;;19.62;10.35;;;;;;;8.36;51.80;97074.57;1754064;81;21614;-79
2021/04/13 01:09:49;;;;;;;18.67;10.58;;;;;;;8.36;52.06;97079.36;1740531;82;21173;-78
2021/04/13 01:12:22;;;;;;;20.80;9.63;;;;;;;8.35;52.03;97074.23;1751081;81;21129;-79
2021/04/13 01:14:51;;;;;;;16.40;9.38;;;;;;;8.33;52.20;97075.63;1768817;81;21302;-79
2021/04/13 01:17:21;;;;;;;21.45;10.30;;;;;;;8.32;52.20;97072.64;1759792;81;21165;-79
2021/04/13 01:20:11;;;;;;;16.15;9.45;;;;;;;8.31;52.21;97070.95;1781765;80;21269;-79
2021/04/13 01:25:38;;;;;;;21.27;12.35;;;;;;;8.29;52.39;97059.27;1772402;80;21129;-78
2021/04/13 01:28:13;;;;;;;20.62;12.05;;;;;;;8.29;52.51;97050.56;1775737;80;21467;-78
2021/04/13 01:30:55;;;;;;;19.65;11.20;;;;;;;8.28;52.44;97054.95;1820338;79;21568;-77
2021/04/13 01:33:41;;;;;;;18.02;10.68;;;;;;;8.27;52.37;97051.96;1803759;79;21566;-77
2021/04/13 01:36:30;;;;;;;17.20;10.58;;;;;;;8.27;52.59;97044.57;1781157;79;21568;-79
2021/04/13 01:39:25;;;;;;;21.25;11.03;;;;;;;8.29;52.51;97049.24;1820287;79;21112;-78
2021/04/13 01:41:58;;;;;;;21.90;10.65;;;;;;;8.29;52.53;97047.44;1787098;79;21119;-78
2021/04/13 01:44:49;;;;;;;19.73;11.97;;;;;;;8.32;52.44;97043.75;1820507;79;21883;-78
2021/04/13 01:47:21;;;;;;;20.27;11.35;;;;;;;8.33;52.73;97036.23;1815960;79;21151;-80
2021/04/13 01:49:56;;;;;;;21.07;12.10;;;;;;;8.36;52.64;97036.03;1788543;79;21101;-76
2021/04/13 01:52:31;;;;;;;17.25;10.15;;;;;;;8.38;52.90;97032.82;1771648;79;21697;-79
2021/04/13 01:55:11;;;;;;;20.27;10.25;;;;;;;8.34;52.90;97021.34;1797291;79;21175;-79
2021/04/13 01:57:58;;;;;;;21.60;10.03;;;;;;;8.42;53.09;97032.12;1805655;79;21116;-77
2021/04/13 02:00:44;;;;;;;15.50;8.38;;;;;;;8.43;53.02;97028.06;1757235;81;21143;-79
2021/04/13 02:03:49;;;;;;;14.77;7.17;;;;;;;8.38;53.04;97023.63;1764740;79;21116;-78
2021/04/13 02:06:23;;;;;;;13.75;7.95;;;;;;;8.44;52.87;97034.17;1691172;84;21199;-78
2021/04/13 02:09:39;;;;;;;14.25;7.78;;;;;;;8.50;53.30;97032.43;1825269;77;22409;-79
2021/04/13 02:12:17;;;;;;;20.52;8.93;;;;;;;8.46;52.85;97032.73;1828170;78;21266;-78
2021/04/13 02:14:49;;;;;;;23.35;10.10;;;;;;;8.47;52.75;97028.70;1758714;81;21636;-78
2021/04/13 02:17:27;;;;;;;19.37;10.68;;;;;;;8.49;52.87;97022.87;1736005;81;21202;-79
2021/04/13 02:19:56;;;;;;;22.70;9.93;;;;;;;8.50;52.89;97023.23;1772413;81;21560;-78
2021/04/13 02:22:26;;;;;;;21.85;10.40;;;;;;;8.52;52.92;97025.28;1776398;81;21147;-79
2021/04/13 02:24:59;;;;;;;24.70;11.00;;;;;;;8.55;52.99;97018.95;1776980;81;21601;-80
2021/04/13 02:27:32;;;;;;;20.68;10.85;;;;;;;8.56;53.00;97018.84;1775811;81;21131;-79
2021/04/13 02:30:08;;;;;;;22.17;12.50;;;;;;;8.59;52.92;97017.31;1756327;81;21138;-77
2021/04/13 02:32:41;;;;;;;21.80;11.65;;;;;;;8.59;53.05;97016.45;1776937;81;21163;-78
2021/04/13 02:35:38;;;;;;;18.45;12.25;;;;;;;8.59;53.10;97018.63;1776518;81;21107;-79
2021/04/13 02:38:23;;;;;;;20.43;12.33;;;;;;;8.59;53.09;97008.11;1700529;84;21137;-78
2021/04/13 02:41:02;;;;;;;21.07;12.05;;;;;;;8.58;53.25;97001.17;1699442;84;21128;-78
2021/04/13 02:43:44;;;;;;;21.07;13.18;;;;;;;8.57;53.34;97012.64;1697648;83;21181;-79
2021/04/13 02:46:17;;;;;;;23.02;11.78;;;;;;;8.56;53.32;97007.50;1703645;84;21180;-78
2021/04/13 02:48:51;;;;;;;22.27;11.90;;;;;;;8.54;53.37;97006.28;1698165;84;21628;-80
2021/04/13 02:51:21;;;;;;;27.90;12.82;;;;;;;8.54;53.21;97006.77;1704525;84;21169;-78
2021/04/13 02:53:54;;;;;;;27.35;12.95;;;;;;;8.52;53.32;97001.64;1674456;84;21160;-80
2021/04/13 02:56:33;;;;;;;23.40;10.75;;;;;;;8.53;53.54;97003.78;1684634;84;21168;-78
2021/04/13 02:59:11;;;;;;;28.07;11.18;;;;;;;8.52;53.56;97006.04;1703860;84;21602;-77
2021/04/13 03:01:44;;;;;;;20.20;11.55;;;;;;;8.51;53.58;97006.98;1667068;85;21202;-78
2021/04/13 03:04:11;;;;;;;23.12;11.28;;;;;;;8.50;53.60;97011.41;1689357;84;21176;-78
2021/04/13 03:06:43;;;;;;;16.97;10.68;;;;;;;8.48;53.83;97005.42;1710182;84;21153;-79
2021/04/13 03:09:13;;;;;;;22.02;10.98;;;;;;;8.49;53.77;97010.22;1686018;85;21162;-79
2021/04/13 03:11:48;;;;;;;21.60;11.18;;;;;;;8.48;53.83;97003.29;1686661;84;21299;-78
2021/04/13 03:14:19;;;;;;;17.75;9.70;;;;;;;8.47;53.84;97009.00;1685885;84;21167;-80
2021/04/13 03:16:50;;;;;;;18.65;10.23;;;;;;;8.44;53.96;97013.98;1686566;85;21162;-78
2021/04/13 03:19:22;;;;;;;21.87;10.25;;;;;;;8.27;54.03;96987.62;1658311;86;21168;-78
2021/04/13 03:21:59;;;;;;;20.45;10.40;;;;;;;8.41;54.00;97012.87;1699524;84;21207;-78
2021/04/13 03:24:31;;;;;;;17.25;9.60;;;;;;;8.40;54.02;97015.14;1711761;84;21281;-79
2021/04/13 03:27:09;;;;;;;26.48;11.90;;;;;;;8.37;54.08;97010.59;1712272;84;21180;-78
2021/04/13 03:30:08;;;;;;;19.92;10.98;;;;;;;8.34;54.07;97010.34;1689323;84;21150;-78
2021/04/13 03:32:44;;;;;;;21.17;11.45;;;;;;;8.33;54.17;97009.16;1685392;85;21180;-78
2021/04/13 03:35:12;;;;;;;25.95;12.73;;;;;;;8.32;54.22;97010.09;1653634;87;21322;-79
2021/04/13 03:37:43;;;;;;;20.62;11.75;;;;;;;8.30;54.26;97004.97;1645357;87;21294;-78
2021/04/13 03:40:15;;;;;;;21.52;12.73;;;;;;;8.30;54.30;97008.91;1668364;86;21168;-79
2021/04/13 03:42:43;;;;;;;23.42;11.88;;;;;;;8.30;54.24;97003.66;1672390;86;21177;-78
2021/04/13 03:45:14;;;;;;;16.97;11.15;;;;;;;8.32;54.30;97004.36;1672676;85;21159;-78
2021/04/13 03:47:45;;;;;;;23.87;11.25;;;;;;;8.33;54.36;97009.97;1670938;85;21135;-78
2021/04/13 03:50:18;;;;;;;22.10;11.53;;;;;;;8.30;54.41;97010.22;1668789;86;21139;-79
2021/04/13 03:52:45;;;;;;;24.70;12.60;;;;;;;8.26;55.35;97005.64;1669535;86;21135;-80
2021/04/13 03:55:18;;;;;;;27.15;12.70;;;;;;;8.21;55.53;97005.14;1672267;85;21135;-79
2021/04/13 03:57:47;;;;;;;27.80;14.18;;;;;;;8.18;55.58;97002.73;1670533;86;21140;-79
2021/04/13 04:00:21;;;;;;;29.57;14.00;;;;;;;8.15;55.38;97006.91;1669542;86;21175;-77
2021/04/13 04:02:49;;;;;;;23.40;13.15;;;;;;;8.13;57.76;97014.05;1626288;86;21156;-79
2021/04/13 04:05:23;;;;;;;29.72;14.23;;;;;;;8.14;55.49;97014.42;1668231;86;21160;-78
2021/04/13 04:08:02;;;;;;;28.15;14.83;;;;;;;8.16;55.51;97011.22;1670623;86;21580;-80
2021/04/13 04:10:46;;;;;;;25.80;13.95;;;;;;;8.21;55.46;97008.26;1667490;86;21169;-78
2021/04/13 04:13:25;;;;;;;25.77;13.45;;;;;;;8.24;55.67;97011.95;1643223;87;21158;-81
2021/04/13 04:16:07;;;;;;;32.58;15.08;;;;;;;8.22;56.29;97009.91;1663413;86;21608;-79
2021/04/13 04:18:42;;;;;;;32.15;14.60;;;;;;;8.20;56.07;97009.20;1669143;86;21125;-79
2021/04/13 04:21:28;;;;;;;35.00;14.90;;;;;;;8.24;55.82;97012.81;1668567;86;21164;-79
2021/04/13 04:24:01;;;;;;;26.40;14.95;;;;;;;8.32;55.75;97017.48;1665523;86;21144;-78
2021/04/13 04:26:34;;;;;;;32.55;16.42;;;;;;;8.41;55.69;97018.13;1672490;85;21152;-79
2021/04/13 04:29:17;;;;;;;32.45;14.70;;;;;;;8.49;55.58;97015.48;1672016;86;21125;-78
2021/04/13 04:31:45;;;;;;;30.72;14.75;;;;;;;8.58;55.43;97022.69;1648474;86;21302;-79
2021/04/13 04:34:19;;;;;;;28.15;14.15;;;;;;;8.67;55.36;97029.03;1666980;86;21148;-78
2021/04/13 04:36:52;;;;;;;29.45;14.40;;;;;;;8.73;55.44;97028.11;1666868;83;21161;-78
2021/04/13 04:39:36;;;;;;;25.52;14.38;;;;;;;8.80;55.41;97022.39;1679790;85;21634;-79
2021/04/13 04:42:11;;;;;;;37.45;14.63;;;;;;;8.86;55.25;97029.36;1680119;84;21180;-79
2021/04/13 04:44:39;;;;;;;35.70;14.55;;;;;;;8.94;55.14;97026.63;1654083;84;21628;-79
2021/04/13 04:47:36;;;;;;;23.98;13.03;;;;;;;9.03;55.10;97027.25;1663509;86;21206;-79
2021/04/13 04:50:07;;;;;;;25.95;13.62;;;;;;;9.10;55.01;97033.71;1670121;84;21120;-78
2021/04/13 04:52:34;;;;;;;31.33;13.32;;;;;;;9.19;54.89;97036.14;1678176;85;21162;-78
2021/04/13 04:55:02;;;;;;;26.45;13.53;;;;;;;9.28;54.82;97035.44;1679558;85;21175;-79
2021/04/13 04:57:30;;;;;;;27.48;14.05;;;;;;;9.36;54.63;97030.43;1694454;84;21121;-78
2021/04/13 04:59:57;;;;;;;19.82;11.53;;;;;;;9.44;54.52;97031.17;1703340;84;21155;-78
2021/04/13 05:02:24;;;;;;;25.05;11.30;;;;;;;9.52;54.17;97023.98;1656293;86;21152;-79
2021/04/13 05:04:52;;;;;;;32.58;14.53;;;;;;;9.57;54.03;97024.48;1701718;84;21140;-79
2021/04/13 05:07:19;;;;;;;27.93;12.03;;;;;;;9.66;54.03;97023.77;1702615;84;21624;-77
2021/04/13 05:09:46;;;;;;;25.00;13.98;;;;;;;9.75;53.84;97015.61;1698507;84;21156;-78
2021/04/13 05:12:14;;;;;;;29.95;13.35;;;;;;;9.87;53.83;97015.16;1677749;85;21181;-77
2021/04/13 05:14:41;;;;;;;25.20;13.80;;;;;;;10.08;53.75;97016.56;1676850;85;21152;-76
2021/04/13 05:17:08;;;;;;;31.05;15.10;;;;;;;10.28;53.48;97012.81;1683544;85;21459;-79
2021/04/13 05:19:36;;;;;;;23.05;13.30;;;;;;;10.42;53.11;97020.95;1697364;84;21616;-81
2021/04/13 05:22:03;;;;;;;32.33;14.78;;;;;;;10.51;52.97;97010.98;1709894;84;21581;-80
2021/04/13 05:24:31;;;;;;;29.15;14.45;;;;;;;10.59;52.79;97015.14;1705295;84;21171;-79
2021/04/13 05:26:58;;;;;;;26.20;14.28;;;;;;;10.69;52.63;97013.07;1701131;84;21176;-80
2021/04/13 05:29:25;;;;;;;32.33;17.10;;;;;;;10.75;52.54;97016.52;1709454;84;21577;-79
2021/04/13 05:31:52;;;;;;;26.05;12.23;;;;;;;10.84;52.42;97014.93;1709661;84;21182;-79
2021/04/13 05:34:20;;;;;;;27.35;11.75;;;;;;;10.89;52.19;97018.86;1683320;84;21163;-79
2021/04/13 05:36:50;;;;;;;24.75;11.22;;;;;;;10.96;52.04;97016.53;1697361;84;21167;-79
2021/04/13 05:39:19;;;;;;;21.42;11.90;;;;;;;11.03;51.90;97014.22;1700768;83;21136;-80
2021/04/13 05:41:48;;;;;;;21.57;10.88;;;;;;;11.09;51.68;97012.38;1699806;84;21553;-80
2021/04/13 05:44:20;;;;;;;33.42;11.43;;;;;;;11.12;51.57;97005.54;1708668;83;21145;-80
2021/04/13 05:46:49;;;;;;;29.87;11.22;;;;;;;11.16;51.52;97010.92;1686324;83;21156;-79
2021/04/13 05:49:16;;;;;;;32.05;13.83;;;;;;;11.20;51.50;97008.36;1644194;86;21628;-76
2021/04/13 05:51:44;;;;;;;35.50;13.43;;;;;;;11.31;51.50;97014.08;1677986;84;21164;-78
2021/04/13 05:54:11;;;;;;;31.93;14.93;;;;;;;11.43;51.37;97012.19;1672508;84;21302;-77
2021/04/13 05:56:41;;;;;;;25.20;14.13;;;;;;;11.52;51.34;97003.48;1700721;83;21162;-77
2021/04/13 05:59:13;;;;;;;28.12;14.47;;;;;;;11.61;51.18;97005.80;1709092;83;21188;-76
2021/04/13 06:01:45;;;;;;;35.10;15.32;;;;;;;11.72;50.98;97005.72;1700405;84;21261;-79
2021/04/13 06:04:11;;;;;;;31.97;15.63;;;;;;;11.82;50.91;97007.09;1700024;84;21138;-79
2021/04/13 06:06:38;;;;;;;33.00;16.25;;;;;;;11.90;50.65;97005.09;1712950;83;21143;-74
2021/04/13 06:09:07;;;;;;;28.85;16.40;;;;;;;11.98;50.52;97001.81;1703131;83;21182;-77
2021/04/13 06:11:34;;;;;;;27.77;16.55;;;;;;;12.08;50.41;97005.33;1701900;83;21168;-77
2021/04/13 06:14:04;;;;;;;35.63;16.02;;;;;;;12.18;50.18;97003.55;1708159;83;21148;-78
2021/04/13 06:16:38;;;;;;;30.97;14.87;;;;;;;12.25;49.87;96998.53;1702222;83;21137;-78
2021/04/13 06:19:08;;;;;;;35.15;16.50;;;;;;;12.34;49.77;96999.53;1699604;84;21191;-78
2021/04/13 06:21:37;;;;;;;33.38;16.55;;;;;;;12.40;49.41;96998.16;1699902;83;21571;-79
2021/04/13 06:24:06;;;;;;;35.10;16.55;;;;;;;12.47;49.33;96996.16;1708849;83;21136;-78
2021/04/13 06:26:33;;;;;;;39.78;17.60;;;;;;;12.58;49.17;96993.00;1701411;83;21225;-78
2021/04/13 06:29:02;;;;;;;43.00;19.02;;;;;;;12.67;49.08;96988.70;1684092;83;21556;-78
2021/04/13 06:31:30;;;;;;;36.33;17.73;;;;;;;12.75;48.76;96984.41;1685888;83;21152;-76
2021/04/13 06:33:57;;;;;;;37.13;18.37;;;;;;;12.80;48.59;96984.81;1673004;86;21623;-78
2021/04/13 06:36:27;;;;;;;35.73;18.60;;;;;;;12.89;48.52;96989.76;1702323;83;21188;-78
2021/04/13 06:38:58;;;;;;;36.38;20.00;;;;;;;12.96;48.31;96988.21;1700904;83;21129;-78
2021/04/13 06:42:04;;;;;;;35.30;18.75;;;;;;;13.06;48.19;96984.72;1700525;83;21621;-79
2021/04/13 06:44:52;;;;;;;39.50;20.43;;;;;;;13.11;48.16;96991.26;1670503;84;21174;-80
2021/04/13 06:47:49;;;;;;;33.63;18.85;;;;;;;13.21;47.81;96995.70;1700094;83;21623;-80
2021/04/13 06:50:36;;;;;;;38.45;19.00;;;;;;;13.27;47.60;96992.47;1698767;84;21177;-79
2021/04/13 06:53:39;;;;;;;32.58;18.20;;;;;;;13.34;47.53;96994.89;1700174;83;21184;-79
2021/04/13 06:56:54;;;;;;;36.77;17.10;;;;;;;13.45;47.31;96997.91;1693659;83;21607;-80
2021/04/13 06:59:53;;;;;;;34.50;17.80;;;;;;;13.54;47.13;96994.39;1701367;83;21275;-79
2021/04/13 07:02:29;;;;;;;35.05;18.50;;;;;;;13.63;46.79;96995.33;1672560;86;21190;-79
2021/04/13 07:05:05;;;;;;;32.85;17.70;;;;;;;13.73;46.63;96993.98;1678620;83;21144;-78
2021/04/13 07:08:05;;;;;;;38.10;20.43;;;;;;;13.78;46.55;96990.89;1710825;83;21606;-79
2021/04/13 07:10:45;;;;;;;34.33;19.42;;;;;;;13.76;46.44;96992.34;1700385;84;21216;-76
2021/04/13 07:13:30;;;;;;;45.65;21.68;;;;;;;13.75;46.26;96993.32;1700349;83;21150;-76
2021/04/13 07:16:06;;;;;;;41.25;21.42;;;;;;;13.69;46.41;96989.94;1700287;84;21598;-79
2021/04/13 07:18:53;;;;;;;37.45;22.30;;;;;;;13.65;46.26;96991.20;1700908;84;21175;-79
2021/04/13 07:21:43;;;;;;;38.10;20.08;;;;;;;13.47;46.59;96995.11;1700429;84;21167;-78
2021/04/13 07:24:32;;;;;;;35.23;21.82;;;;;;;13.49;46.64;96989.19;1700843;83;21160;-78
2021/04/13 07:27:05;;;;;;;33.15;20.65;;;;;;;13.55;46.63;96985.45;1699605;84;21151;-79
2021/04/13 07:29:44;;;;;;;44.95;21.42;;;;;;;13.66;46.43;96982.27;1707420;83;21145;-79
2021/04/13 07:32:24;;;;;;;33.67;17.75;;;;;;;13.85;45.96;96976.89;1828848;77;22962;-78
2021/04/13 07:34:56;;;;;;;49.25;21.50;;;;;;;13.80;45.95;96980.49;1796934;78;21177;-78
2021/04/13 07:37:46;;;;;;;37.42;22.15;;;;;;;13.72;46.10;96982.53;1779964;79;21133;-80
2021/04/13 07:40:25;;;;;;;45.98;21.50;;;;;;;13.70;45.96;96984.48;1782959;78;21526;-77
2021/04/13 07:43:20;;;;;;;34.85;17.70;;;;;;;13.77;46.05;96981.28;1786461;78;21122;-79
2021/04/13 07:46:17;;;;;;;36.98;21.75;;;;;;;13.82;45.53;96981.19;1787487;80;21102;-76
2021/04/13 07:49:15;;;;;;;51.65;24.10;;;;;;;13.65;45.24;96980.61;1786485;80;21570;-78
2021/04/13 07:51:59;;;;;;;39.33;22.87;;;;;;;13.73;45.48;96978.09;1790414;78;21118;-78
2021/04/13 07:54:47;;;;;;;45.00;22.75;;;;;;;13.74;45.09;96973.96;1787638;80;21118;-79
2021/04/13 07:57:29;;;;;;;49.20;23.02;;;;;;;13.62;45.24;96960.55;1763186;78;21205;-78
2021/04/13 08:00:19;;;;;;;37.45;21.33;;;;;;;13.69;44.76;96976.19;1754181;80;21739;-78
2021/04/13 08:02:53;;;;;;;49.88;21.80;;;;;;;13.65;44.91;96980.13;1765266;78;21145;-78
2021/04/13 08:05:46;;;;;;;46.20;22.80;;;;;;;13.57;45.10;96975.55;1781244;80;21145;-77
2021/04/13 08:08:36;;;;;;;49.85;23.38;;;;;;;13.54;45.28;96976.33;1765346;80;21588;-78
2021/04/13 08:11:20;;;;;;;46.60;24.15;;;;;;;13.55;45.36;96978.00;1764000;81;21160;-78
2021/04/13 08:13:53;;;;;;;48.05;24.52;;;;;;;13.66;45.43;96984.92;1777479;78;21162;-78
2021/04/13 08:16:37;;;;;;;36.63;18.52;;;;;;;13.78;45.38;96979.80;1788687;80;21141;-77
2021/04/13 08:19:28;;;;;;;33.00;15.05;;;;;;;13.93;45.33;96976.17;1772572;78;21135;-77
2021/04/13 08:22:13;;;;;;;29.10;15.18;;;;;;;14.03;45.03;96983.58;1782868;78;21114;-78
2021/04/13 08:24:57;;;;;;;26.77;16.90;;;;;;;14.14;44.96;96980.39;1763934;81;21579;-77
2021/04/13 08:27:45;;;;;;;28.35;16.93;;;;;;;14.15;44.66;96977.58;1783600;78;21119;-78
2021/04/13 08:33:38;;;;;;;32.17;17.42;;;;;;;14.33;44.70;96978.09;1809761;79;22807;-78
2021/04/13 08:36:22;;;;;;;34.48;16.67;;;;;;;14.41;44.69;96978.68;1801611;78;21150;-77
2021/04/13 08:39:26;;;;;;;28.85;13.58;;;;;;;14.46;44.54;96968.45;1796034;78;21114;-78
2021/04/13 08:42:32;;;;;;;36.90;17.90;;;;;;;14.47;44.47;96966.98;1824458;78;21284;-77
2021/04/13 08:45:25;;;;;;;39.50;19.15;;;;;;;14.56;44.76;96968.39;1795970;78;21116;-78
2021/04/13 08:48:03;;;;;;;35.25;17.07;;;;;;;14.93;44.62;96964.25;1825099;78;21698;-77
2021/04/13 08:50:50;;;;;;;39.05;18.73;;;;;;;15.20;44.16;96965.10;1772273;80;21577;-79
2021/04/13 08:53:37;;;;;;;34.83;18.52;;;;;;;15.41;43.96;96959.42;1763217;80;21187;-78
2021/04/13 08:56:28;;;;;;;30.55;15.13;;;;;;;15.54;43.77;96957.69;1751766;81;21127;-79
2021/04/13 08:59:06;;;;;;;41.28;16.73;;;;;;;15.78;42.41;96960.11;1766510;81;21147;-78
2021/04/13 09:01:44;;;;;;;38.50;17.62;;;;;;;15.86;43.25;96961.51;1757862;81;21137;-79
2021/04/13 09:04:30;;;;;;;32.25;18.92;;;;;;;15.91;42.96;96965.83;1769053;81;21141;-80
2021/04/13 09:07:15;;;;;;;29.48;18.12;;;;;;;15.98;42.96;96962.05;1757201;81;21577;-79
2021/04/13 09:10:05;;;;;;;37.28;18.45;;;;;;;16.12;42.69;96957.94;1766522;81;21206;-78
2021/04/13 09:12:37;;;;;;;47.88;18.98;;;;;;;16.28;42.41;96955.00;1761963;81;21557;-79
2021/04/13 09:15:24;;;;;;;28.83;15.98;;;;;;;16.36;42.13;96949.19;1756214;81;21147;-78
2021/04/13 09:18:14;;;;;;;32.83;19.82;;;;;;;16.48;42.07;96948.37;1764793;81;21610;-80
2021/04/13 09:20:50;;;;;;;34.00;18.25;;;;;;;16.46;41.88;96944.22;1771450;81;21111;-80
2021/04/13 09:23:55;;;;;;;31.42;18.32;;;;;;;16.59;41.72;96938.41;1773306;81;21142;-80
2021/04/13 09:26:54;;;;;;;34.85;17.27;;;;;;;16.70;41.62;96935.42;1766197;81;21293;-81
2021/04/13 09:29:49;;;;;;;35.50;17.82;;;;;;;16.95;41.46;96938.95;1747783;81;21185;-78
2021/04/13 09:32:30;;;;;;;34.60;16.60;;;;;;;17.12;40.97;96931.76;1740642;81;21155;-79
2021/04/13 09:35:34;;;;;;;29.42;16.62;;;;;;;17.32;40.63;96932.24;1734563;83;21267;-80
2021/04/13 09:38:23;;;;;;;26.23;15.30;;;;;;;17.43;40.49;96921.72;1759157;81;21563;-80
2021/04/13 09:41:17;;;;;;;30.08;14.07;;;;;;;17.53;39.96;96924.69;1728872;80;21168;-80
2021/04/13 09:44:37;;;;;;;31.77;14.43;;;;;;;17.72;39.75;96920.80;1751311;80;21168;-80
2021/04/13 09:47:16;;;;;;;25.00;14.18;;;;;;;17.94;39.63;96916.02;1746991;82;21159;-80
2021/04/13 09:49:55;;;;;;;28.45;13.95;;;;;;;18.13;39.32;96919.28;1741274;80;21173;-80
2021/04/13 09:52:47;;;;;;;27.73;15.50;;;;;;;18.28;38.90;96919.88;1758643;80;21151;-79
2021/04/13 09:55:29;;;;;;;25.65;14.90;;;;;;;18.41;38.90;96912.11;1775335;79;21139;-79
2021/04/13 09:58:15;;;;;;;31.52;15.00;;;;;;;18.60;38.62;96911.31;1802479;79;21123;-80
2021/04/13 10:01:14;;;;;;;29.27;13.62;;;;;;;18.77;38.40;96912.83;1791424;78;21124;-80
2021/04/13 10:04:23;;;;;;;26.20;15.40;;;;;;;18.91;38.21;96908.55;1786712;80;21184;-81
2021/04/13 10:07:29;;;;;;;30.08;14.20;;;;;;;19.04;37.95;96907.95;1739637;80;21163;-81
2021/04/13 10:10:00;;;;;;;35.83;16.27;;;;;;;19.18;37.74;96912.99;1791295;79;21088;-80
2021/04/13 10:12:51;;;;;;;32.83;16.23;;;;;;;19.35;37.30;96906.98;1790611;79;21526;-81
2021/04/13 10:15:59;;;;;;;34.55;16.73;;;;;;;19.45;37.02;96905.36;1792016;80;21703;-80
2021/04/13 10:19:19;;;;;;;26.80;16.50;;;;;;;19.56;36.79;96904.91;1800397;79;21546;-80
2021/04/13 10:22:29;;;;;;;34.45;17.20;;;;;;;19.65;36.53;96878.39;1786758;80;21152;-78
2021/04/13 10:25:38;;;;;;;31.50;15.93;;;;;;;19.91;36.35;96893.66;1783538;79;21140;-81
2021/04/13 10:28:39;;;;;;;30.85;15.90;;;;;;;20.04;36.13;96892.48;1788604;80;21139;-80
2021/04/13 10:31:33;;;;;;;26.73;12.80;;;;;;;20.14;36.16;96892.17;1788097;79;21119;-80
2021/04/13 10:34:54;;;;;;;44.00;16.05;;;;;;;20.12;35.11;96887.51;1787284;79;21540;-80
2021/04/13 10:37:47;;;;;;;24.15;14.95;;;;;;;20.11;35.98;96884.51;1676482;84;21606;-79
2021/04/13 10:40:42;;;;;;;26.42;14.73;;;;;;;20.24;35.71;96881.98;1689239;84;21536;-79
2021/04/13 10:43:43;;;;;;;;;;;;;;;20.46;34.62;96866.44;1797623;79;23464;-78
2021/04/13 10:46:26;;;;;;;25.55;12.53;;;;;;;20.46;34.09;96865.10;1747235;81;20178;-78
2021/04/13 10:49:20;;;;;;;29.00;14.18;;;;;;;20.50;35.16;96865.86;1758496;81;21135;-78
2021/04/13 10:52:23;;;;;;;29.45;13.62;;;;;;;20.37;35.01;96867.09;1769192;80;21302;-80
2021/04/13 10:55:29;;;;;;;40.75;20.70;;;;;;;20.07;34.30;96871.21;1776112;80;21149;-78
2021/04/13 10:58:34;;;;;;;21.82;11.18;;;;;;;19.48;35.02;96873.77;1767303;80;21125;-80
2021/04/13 11:01:53;;;;;;;24.60;14.35;;;;;;;19.40;34.98;96876.52;1766266;80;21123;-80
2021/04/13 11:05:09;;;;;;;29.05;14.60;;;;;;;19.10;35.61;96869.00;1766925;80;21584;-80
2021/04/13 11:08:13;;;;;;;34.20;15.28;;;;;;;19.13;35.75;96869.98;1775831;80;21196;-79
2021/04/13 11:11:18;;;;;;;24.18;12.37;;;;;;;19.08;35.62;96856.33;1740222;81;21165;-79
2021/04/13 11:14:12;;;;;;;26.93;10.28;;;;;;;19.11;35.43;96870.17;1761787;81;21134;-80
2021/04/13 11:17:13;;;;;;;22.42;8.15;;;;;;;18.79;34.46;96876.11;1761997;81;21607;-80
2021/04/13 11:20:10;;;;;;;9.68;5.50;;;;;;;18.62;35.16;96872.75;1761959;81;21536;-80
2021/04/13 11:23:01;;;;;;;16.52;5.85;;;;;;;18.67;35.02;96866.38;1762049;81;21131;-80
2021/04/13 11:25:56;;;;;;;17.55;5.75;;;;;;;18.51;34.23;96863.86;1761973;81;21182;-80
2021/04/13 11:28:47;;;;;;;16.12;5.45;;;;;;;18.33;34.42;96857.48;1761347;81;21107;-80
2021/04/13 11:31:49;;;;;;;;;;;;;;;18.18;34.89;96857.41;1778958;79;22256;-80
2021/04/13 11:34:28;;;;;;;16.00;6.00;;;;;;;18.06;34.74;96867.14;1723784;83;20132;-79
2021/04/13 11:37:16;;;;;;;22.22;8.35;;;;;;;17.85;35.22;96868.27;1723808;82;21140;-79
2021/04/13 11:40:26;;;;;;;13.70;5.58;;;;;;;17.68;35.71;96868.32;1723758;83;21594;-79
2021/04/13 11:42:57;;;;;;;18.30;5.62;;;;;;;17.51;36.02;96873.39;1723817;83;21160;-80
2021/04/13 11:45:49;;;;;;;15.88;6.25;;;;;;;17.37;36.25;96874.94;1723733;83;21116;-79
2021/04/13 11:49:11;;;;;;;10.68;6.25;;;;;;;17.25;36.52;96871.82;1724122;83;21179;-80
2021/04/13 11:51:59;;;;;;;12.60;5.22;;;;;;;17.13;36.90;96866.85;1723952;83;21175;-80
2021/04/13 11:54:53;;;;;;;15.20;6.33;;;;;;;17.03;37.10;96870.72;1723787;82;21160;-80
2021/04/13 11:57:25;;;;;;;11.00;5.20;;;;;;;16.77;37.38;96841.94;1723826;83;21140;-80
2021/04/13 12:00:20;;;;;;;14.75;6.67;;;;;;;16.88;37.61;96868.73;1723822;83;21132;-80
2021/04/13 12:03:07;;;;;;;18.57;7.42;;;;;;;16.71;37.81;96842.62;1723836;83;21151;-79
2021/04/13 12:05:39;;;;;;;13.78;5.92;;;;;;;16.88;37.92;96869.20;1724042;83;21151;-79
2021/04/13 12:08:08;;;;;;;13.38;6.05;;;;;;;16.92;37.92;96865.22;1723894;83;21145;-79
2021/04/13 12:10:41;;;;;;;11.78;5.15;;;;;;;16.92;38.01;96866.04;1695318;83;21136;-80
2021/04/13 12:13:10;;;;;;;16.25;6.42;;;;;;;16.95;38.07;96856.91;1723959;83;21167;-80
2021/04/13 12:15:42;;;;;;;19.30;7.50;;;;;;;16.99;38.14;96856.40;1723788;83;21171;-79
2021/04/13 12:18:39;;;;;;;12.05;5.92;;;;;;;16.95;38.42;96848.44;1721576;83;21399;-79
2021/04/13 12:21:30;;;;;;;18.17;7.55;;;;;;;17.00;38.36;96849.27;1724136;82;21104;-78
2021/04/13 12:24:02;;;;;;;15.23;6.62;;;;;;;16.91;38.59;96842.27;1723781;83;21574;-81
2021/04/13 12:26:38;;;;;;;12.78;7.20;;;;;;;16.96;38.68;96839.45;1723676;83;21171;-80
2021/04/13 12:29:31;;;;;;;17.85;6.15;;;;;;;17.05;38.78;96846.91;1724045;83;21682;-79
2021/04/13 12:32:17;;;;;;;11.43;7.10;;;;;;;17.13;38.73;96845.55;1723746;82;21585;-79
2021/04/13 12:34:54;;;;;;;18.85;7.97;;;;;;;17.06;38.92;96837.92;1723719;82;21148;-79
2021/04/13 12:37:49;;;;;;;15.10;7.05;;;;;;;17.06;39.07;96843.76;1723751;82;21565;-79